sensor_id;sensor_type;location;lat;lon;timestamp;pressure;altitude;pressure_sealevel;temperature;humidity
50226;BME280;36113;50.742;6.432;2023-05-10T00:01:56;112741.81;;;-145.50;100.00
50226;BME280;36113;50.742;6.432;2023-05-10T00:04:21;112741.81;;;-145.50;100.00
50226;BME280;36113;50.742;6.432;2023-05-10T00:06:46;112741.81;;;-145.50;100.00
50226;BME280;36113;50.742;6.432;2023-05-10T00:09:12;112741.81;;;-145.50;100.00
50226;BME280;36113;50.742;6.432;2023-05-10T00:11:37;112741.81;;;-145.50;100.00
50226;BME280;36113;50.742;6.432;2023-05-10T00:14:02;112741.81;;;-145.50;100.00
50226;BME280;36113;50.742;6.432;2023-05-10T00:16:28;112741.81;;;-145.50;100.00
50226;BME280;36113;50.742;6.432;2023-05-10T00:18:53;112741.81;;;-145.50;100.00
50226;BME280;36113;50.742;6.432;2023-05-10T00:21:19;112741.81;;;-145.50;100.00
50226;BME280;36113;50.742;6.432;2023-05-10T00:23:44;112741.81;;;-145.50;100.00
50226;BME280;36113;50.742;6.432;2023-05-10T00:26:09;112741.81;;;-145.50;100.00
50226;BME280;36113;50.742;6.432;2023-05-10T00:28:35;112741.81;;;-145.50;100.00
50226;BME280;36113;50.742;6.432;2023-05-10T00:31:00;112741.81;;;-145.50;100.00
50226;BME280;36113;50.742;6.432;2023-05-10T00:33:25;112741.81;;;-145.50;100.00
50226;BME280;36113;50.742;6.432;2023-05-10T00:35:53;112741.81;;;-145.50;100.00
50226;BME280;36113;50.742;6.432;2023-05-10T00:38:19;112741.81;;;-145.50;100.00
50226;BME280;36113;50.742;6.432;2023-05-10T00:40:44;112741.81;;;-145.50;100.00
50226;BME280;36113;50.742;6.432;2023-05-10T00:43:09;112741.81;;;-145.50;100.00
50226;BME280;36113;50.742;6.432;2023-05-10T00:45:35;112741.81;;;-145.50;100.00
50226;BME280;36113;50.742;6.432;2023-05-10T00:48:02;112741.81;;;-145.50;100.00
50226;BME280;36113;50.742;6.432;2023-05-10T00:50:27;112741.81;;;-145.50;100.00
50226;BME280;36113;50.742;6.432;2023-05-10T00:52:53;112741.81;;;-145.50;100.00
50226;BME280;36113;50.742;6.432;2023-05-10T00:55:18;112741.81;;;-145.50;100.00
50226;BME280;36113;50.742;6.432;2023-05-10T00:57:44;112741.81;;;-145.50;100.00
50226;BME280;36113;50.742;6.432;2023-05-10T01:00:10;112741.81;;;-145.50;100.00
50226;BME280;36113;50.742;6.432;2023-05-10T01:02:36;112741.81;;;-145.50;100.00
50226;BME280;36113;50.742;6.432;2023-05-10T01:05:02;112741.81;;;-145.50;100.00
50226;BME280;36113;50.742;6.432;2023-05-10T01:07:28;112741.81;;;-145.50;100.00
50226;BME280;36113;50.742;6.432;2023-05-10T01:09:54;112741.81;;;-145.50;100.00
50226;BME280;36113;50.742;6.432;2023-05-10T01:12:20;112741.81;;;-145.50;100.00
50226;BME280;36113;50.742;6.432;2023-05-10T01:14:46;112741.81;;;-145.50;100.00
50226;BME280;36113;50.742;6.432;2023-05-10T01:17:12;112741.81;;;-145.50;100.00
50226;BME280;36113;50.742;6.432;2023-05-10T01:19:38;112741.81;;;-145.50;100.00
50226;BME280;36113;50.742;6.432;2023-05-10T01:28:25;112741.81;;;-145.50;100.00
50226;BME280;36113;50.742;6.432;2023-05-10T01:33:55;112741.81;;;-145.50;100.00
50226;BME280;36113;50.742;6.432;2023-05-10T01:36:32;112741.81;;;-145.50;100.00
50226;BME280;36113;50.742;6.432;2023-05-10T01:39:30;112741.81;;;-145.50;100.00
50226;BME280;36113;50.742;6.432;2023-05-10T01:44:34;112741.81;;;-145.50;100.00
50226;BME280;36113;50.742;6.432;2023-05-10T01:47:24;112741.81;;;-145.50;100.00
50226;BME280;36113;50.742;6.432;2023-05-10T01:49:54;112741.81;;;-145.50;100.00
50226;BME280;36113;50.742;6.432;2023-05-10T01:52:26;112741.81;;;-145.50;100.00
50226;BME280;36113;50.742;6.432;2023-05-10T01:55:15;112741.81;;;-145.50;100.00
50226;BME280;36113;50.742;6.432;2023-05-10T01:57:43;112741.81;;;-145.50;100.00
50226;BME280;36113;50.742;6.432;2023-05-10T02:00:11;112741.81;;;-145.50;100.00
50226;BME280;36113;50.742;6.432;2023-05-10T02:02:39;112741.81;;;-145.50;100.00
50226;BME280;36113;50.742;6.432;2023-05-10T02:05:07;112741.81;;;-145.50;100.00
50226;BME280;36113;50.742;6.432;2023-05-10T02:07:35;112741.81;;;-145.50;100.00
50226;BME280;36113;50.742;6.432;2023-05-10T02:10:03;112741.81;;;-145.50;100.00
50226;BME280;36113;50.742;6.432;2023-05-10T02:12:29;112741.81;;;-145.50;100.00
50226;BME280;36113;50.742;6.432;2023-05-10T02:14:56;112741.81;;;-145.50;100.00
50226;BME280;36113;50.742;6.432;2023-05-10T02:17:22;112741.81;;;-145.50;100.00
50226;BME280;36113;50.742;6.432;2023-05-10T02:19:50;112741.81;;;-145.50;100.00
50226;BME280;36113;50.742;6.432;2023-05-10T02:22:17;112741.81;;;-145.50;100.00
50226;BME280;36113;50.742;6.432;2023-05-10T02:24:43;112741.81;;;-145.50;100.00
50226;BME280;36113;50.742;6.432;2023-05-10T02:27:10;112741.81;;;-145.50;100.00
50226;BME280;36113;50.742;6.432;2023-05-10T02:29:36;112741.81;;;-145.50;100.00
50226;BME280;36113;50.742;6.432;2023-05-10T02:32:02;112741.81;;;-145.50;100.00
50226;BME280;36113;50.742;6.432;2023-05-10T02:34:28;112741.81;;;-145.50;100.00
50226;BME280;36113;50.742;6.432;2023-05-10T02:36:54;112741.81;;;-145.50;100.00
50226;BME280;36113;50.742;6.432;2023-05-10T02:39:21;112741.81;;;-145.50;100.00
50226;BME280;36113;50.742;6.432;2023-05-10T02:41:47;112741.81;;;-145.50;100.00
50226;BME280;36113;50.742;6.432;2023-05-10T02:44:15;112741.81;;;-145.50;100.00
50226;BME280;36113;50.742;6.432;2023-05-10T02:46:42;112741.81;;;-145.50;100.00
50226;BME280;36113;50.742;6.432;2023-05-10T02:49:08;112741.81;;;-145.50;100.00
50226;BME280;36113;50.742;6.432;2023-05-10T02:51:35;112741.81;;;-145.50;100.00
50226;BME280;36113;50.742;6.432;2023-05-10T02:54:09;112741.81;;;-145.50;100.00
50226;BME280;36113;50.742;6.432;2023-05-10T02:56:36;112741.81;;;-145.50;100.00
50226;BME280;36113;50.742;6.432;2023-05-10T02:59:04;112741.81;;;-145.50;100.00
50226;BME280;36113;50.742;6.432;2023-05-10T03:01:30;112741.81;;;-145.50;100.00
50226;BME280;36113;50.742;6.432;2023-05-10T03:03:55;112741.81;;;-145.50;100.00
50226;BME280;36113;50.742;6.432;2023-05-10T03:06:20;112741.81;;;-145.50;100.00
50226;BME280;36113;50.742;6.432;2023-05-10T03:08:46;112741.81;;;-145.50;100.00
50226;BME280;36113;50.742;6.432;2023-05-10T03:13:48;112741.81;;;-145.50;100.00
50226;BME280;36113;50.742;6.432;2023-05-10T03:16:42;112741.81;;;-145.50;100.00
50226;BME280;36113;50.742;6.432;2023-05-10T03:19:22;112741.81;;;-145.50;100.00
50226;BME280;36113;50.742;6.432;2023-05-10T03:21:52;112741.81;;;-145.50;100.00
50226;BME280;36113;50.742;6.432;2023-05-10T03:24:21;112741.81;;;-145.50;100.00
50226;BME280;36113;50.742;6.432;2023-05-10T03:26:48;112741.81;;;-145.50;100.00
50226;BME280;36113;50.742;6.432;2023-05-10T03:29:15;112741.81;;;-145.50;100.00
50226;BME280;36113;50.742;6.432;2023-05-10T03:31:41;112741.81;;;-145.50;100.00
50226;BME280;36113;50.742;6.432;2023-05-10T03:34:07;112741.81;;;-145.50;100.00
50226;BME280;36113;50.742;6.432;2023-05-10T03:36:32;112741.81;;;-145.50;100.00
50226;BME280;36113;50.742;6.432;2023-05-10T03:38:58;112741.81;;;-145.50;100.00
50226;BME280;36113;50.742;6.432;2023-05-10T03:41:23;112741.81;;;-145.50;100.00
50226;BME280;36113;50.742;6.432;2023-05-10T03:43:50;112741.81;;;-145.50;100.00
50226;BME280;36113;50.742;6.432;2023-05-10T03:46:15;112741.81;;;-145.50;100.00
50226;BME280;36113;50.742;6.432;2023-05-10T03:48:40;112741.81;;;-145.50;100.00
50226;BME280;36113;50.742;6.432;2023-05-10T03:51:06;112741.81;;;-145.50;100.00
50226;BME280;36113;50.742;6.432;2023-05-10T03:53:31;112741.81;;;-145.50;100.00
50226;BME280;36113;50.742;6.432;2023-05-10T03:55:56;112741.81;;;-145.50;100.00
50226;BME280;36113;50.742;6.432;2023-05-10T03:58:21;112741.81;;;-145.50;100.00
50226;BME280;36113;50.742;6.432;2023-05-10T04:00:47;112741.81;;;-145.50;100.00
50226;BME280;36113;50.742;6.432;2023-05-10T04:03:12;112741.81;;;-145.50;100.00
50226;BME280;36113;50.742;6.432;2023-05-10T04:05:38;112741.81;;;-145.50;100.00
50226;BME280;36113;50.742;6.432;2023-05-10T04:08:04;112741.81;;;-145.50;100.00
50226;BME280;36113;50.742;6.432;2023-05-10T04:10:29;112741.81;;;-145.50;100.00
50226;BME280;36113;50.742;6.432;2023-05-10T04:12:55;112741.81;;;-145.50;100.00
50226;BME280;36113;50.742;6.432;2023-05-10T04:15:20;112741.81;;;-145.50;100.00
50226;BME280;36113;50.742;6.432;2023-05-10T04:17:46;112741.81;;;-145.50;100.00
50226;BME280;36113;50.742;6.432;2023-05-10T04:20:11;112741.81;;;-145.50;100.00
50226;BME280;36113;50.742;6.432;2023-05-10T04:22:37;112741.81;;;-145.50;100.00
50226;BME280;36113;50.742;6.432;2023-05-10T04:25:03;112741.81;;;-145.50;100.00
50226;BME280;36113;50.742;6.432;2023-05-10T04:27:29;112741.81;;;-145.50;100.00
50226;BME280;36113;50.742;6.432;2023-05-10T04:29:54;112741.81;;;-145.50;100.00
50226;BME280;36113;50.742;6.432;2023-05-10T04:32:20;112741.81;;;-145.50;100.00
50226;BME280;36113;50.742;6.432;2023-05-10T04:34:45;112741.81;;;-145.50;100.00
50226;BME280;36113;50.742;6.432;2023-05-10T04:37:11;112741.81;;;-145.50;100.00
50226;BME280;36113;50.742;6.432;2023-05-10T04:39:36;112741.81;;;-145.50;100.00
50226;BME280;36113;50.742;6.432;2023-05-10T04:42:02;112741.81;;;-145.50;100.00
50226;BME280;36113;50.742;6.432;2023-05-10T04:44:28;112741.81;;;-145.50;100.00
50226;BME280;36113;50.742;6.432;2023-05-10T04:46:54;112741.81;;;-145.50;100.00
50226;BME280;36113;50.742;6.432;2023-05-10T04:49:19;112741.81;;;-145.50;100.00
50226;BME280;36113;50.742;6.432;2023-05-10T04:51:45;112741.81;;;-145.50;100.00
50226;BME280;36113;50.742;6.432;2023-05-10T04:54:11;112741.81;;;-145.50;100.00
50226;BME280;36113;50.742;6.432;2023-05-10T04:56:36;112741.81;;;-145.50;100.00
50226;BME280;36113;50.742;6.432;2023-05-10T04:59:01;112741.81;;;-145.50;100.00
50226;BME280;36113;50.742;6.432;2023-05-10T05:01:26;112741.81;;;-145.50;100.00
50226;BME280;36113;50.742;6.432;2023-05-10T05:03:52;112741.81;;;-145.50;100.00
50226;BME280;36113;50.742;6.432;2023-05-10T05:06:18;112741.81;;;-145.50;100.00
50226;BME280;36113;50.742;6.432;2023-05-10T05:08:43;112741.81;;;-145.50;100.00
50226;BME280;36113;50.742;6.432;2023-05-10T05:11:08;112741.81;;;-145.50;100.00
50226;BME280;36113;50.742;6.432;2023-05-10T05:13:34;112741.81;;;-145.50;100.00
50226;BME280;36113;50.742;6.432;2023-05-10T05:16:01;112741.81;;;-145.50;100.00
50226;BME280;36113;50.742;6.432;2023-05-10T05:18:27;112741.81;;;-145.50;100.00
50226;BME280;36113;50.742;6.432;2023-05-10T05:20:53;112741.81;;;-145.50;100.00
50226;BME280;36113;50.742;6.432;2023-05-10T05:23:18;112741.81;;;-145.50;100.00
50226;BME280;36113;50.742;6.432;2023-05-10T05:25:45;112741.81;;;-145.50;100.00
50226;BME280;36113;50.742;6.432;2023-05-10T05:28:11;112741.81;;;-145.50;100.00
50226;BME280;36113;50.742;6.432;2023-05-10T05:30:36;112741.81;;;-145.50;100.00
50226;BME280;36113;50.742;6.432;2023-05-10T05:33:01;112741.81;;;-145.50;100.00
50226;BME280;36113;50.742;6.432;2023-05-10T05:35:27;112741.81;;;-145.50;100.00
50226;BME280;36113;50.742;6.432;2023-05-10T05:37:52;112741.81;;;-145.50;100.00
50226;BME280;36113;50.742;6.432;2023-05-10T05:40:18;112741.81;;;-145.50;100.00
50226;BME280;36113;50.742;6.432;2023-05-10T05:42:43;112741.81;;;-145.50;100.00
50226;BME280;36113;50.742;6.432;2023-05-10T05:45:08;112741.81;;;-145.50;100.00
50226;BME280;36113;50.742;6.432;2023-05-10T05:47:37;112741.81;;;-145.50;100.00
50226;BME280;36113;50.742;6.432;2023-05-10T05:50:03;112741.81;;;-145.50;100.00
50226;BME280;36113;50.742;6.432;2023-05-10T05:52:30;112741.81;;;-145.50;100.00
50226;BME280;36113;50.742;6.432;2023-05-10T05:54:55;112741.81;;;-145.50;100.00
50226;BME280;36113;50.742;6.432;2023-05-10T05:57:20;112741.81;;;-145.50;100.00
50226;BME280;36113;50.742;6.432;2023-05-10T05:59:46;112741.81;;;-145.50;100.00
50226;BME280;36113;50.742;6.432;2023-05-10T06:02:12;112741.81;;;-145.50;100.00
50226;BME280;36113;50.742;6.432;2023-05-10T06:04:37;112741.81;;;-145.50;100.00
50226;BME280;36113;50.742;6.432;2023-05-10T06:07:03;112741.81;;;-145.50;100.00
50226;BME280;36113;50.742;6.432;2023-05-10T06:09:28;112741.81;;;-145.50;100.00
50226;BME280;36113;50.742;6.432;2023-05-10T06:11:53;112741.81;;;-145.50;100.00
50226;BME280;36113;50.742;6.432;2023-05-10T06:14:22;112741.81;;;-145.50;100.00
50226;BME280;36113;50.742;6.432;2023-05-10T06:16:47;112741.81;;;-145.50;100.00
50226;BME280;36113;50.742;6.432;2023-05-10T06:19:12;112741.81;;;-145.50;100.00
50226;BME280;36113;50.742;6.432;2023-05-10T06:21:38;112741.81;;;-145.50;100.00
50226;BME280;36113;50.742;6.432;2023-05-10T06:24:03;112741.81;;;-145.50;100.00
50226;BME280;36113;50.742;6.432;2023-05-10T06:26:29;112741.81;;;-145.50;100.00
50226;BME280;36113;50.742;6.432;2023-05-10T06:28:54;112741.81;;;-145.50;100.00
50226;BME280;36113;50.742;6.432;2023-05-10T06:31:19;112741.81;;;-145.50;100.00
50226;BME280;36113;50.742;6.432;2023-05-10T06:33:44;112741.81;;;-145.50;100.00
50226;BME280;36113;50.742;6.432;2023-05-10T06:36:10;112741.81;;;-145.50;100.00
50226;BME280;36113;50.742;6.432;2023-05-10T06:38:36;112741.81;;;-145.50;100.00
50226;BME280;36113;50.742;6.432;2023-05-10T06:41:01;112741.81;;;-145.50;100.00
50226;BME280;36113;50.742;6.432;2023-05-10T06:43:26;112741.81;;;-145.50;100.00
50226;BME280;36113;50.742;6.432;2023-05-10T06:45:53;112741.81;;;-145.50;100.00
50226;BME280;36113;50.742;6.432;2023-05-10T06:48:19;112741.81;;;-145.50;100.00
50226;BME280;36113;50.742;6.432;2023-05-10T06:50:44;112741.81;;;-145.50;100.00
50226;BME280;36113;50.742;6.432;2023-05-10T06:53:09;112741.81;;;-145.50;100.00
50226;BME280;36113;50.742;6.432;2023-05-10T06:55:35;112741.81;;;-145.50;100.00
50226;BME280;36113;50.742;6.432;2023-05-10T06:58:01;112741.81;;;-145.50;100.00
50226;BME280;36113;50.742;6.432;2023-05-10T07:00:27;112741.81;;;-145.50;100.00
50226;BME280;36113;50.742;6.432;2023-05-10T07:02:52;112741.81;;;-145.50;100.00
50226;BME280;36113;50.742;6.432;2023-05-10T07:05:17;112741.81;;;-145.50;100.00
50226;BME280;36113;50.742;6.432;2023-05-10T07:07:43;112741.81;;;-145.50;100.00
50226;BME280;36113;50.742;6.432;2023-05-10T07:10:09;112741.81;;;-145.50;100.00
50226;BME280;36113;50.742;6.432;2023-05-10T07:12:34;112741.81;;;-145.50;100.00
50226;BME280;36113;50.742;6.432;2023-05-10T07:14:59;112741.81;;;-145.50;100.00
50226;BME280;36113;50.742;6.432;2023-05-10T07:17:25;112741.81;;;-145.50;100.00
50226;BME280;36113;50.742;6.432;2023-05-10T07:19:50;112741.81;;;-145.50;100.00
50226;BME280;36113;50.742;6.432;2023-05-10T07:22:15;112741.81;;;-145.50;100.00
50226;BME280;36113;50.742;6.432;2023-05-10T07:24:42;112741.81;;;-145.50;100.00
50226;BME280;36113;50.742;6.432;2023-05-10T07:27:07;112741.81;;;-145.50;100.00
50226;BME280;36113;50.742;6.432;2023-05-10T07:29:33;112741.81;;;-145.50;100.00
50226;BME280;36113;50.742;6.432;2023-05-10T07:31:58;112741.81;;;-145.50;100.00
50226;BME280;36113;50.742;6.432;2023-05-10T07:34:23;112741.81;;;-145.50;100.00
50226;BME280;36113;50.742;6.432;2023-05-10T07:36:49;112741.81;;;-145.50;100.00
50226;BME280;36113;50.742;6.432;2023-05-10T07:39:14;112741.81;;;-145.50;100.00
50226;BME280;36113;50.742;6.432;2023-05-10T07:41:39;112741.81;;;-145.50;100.00
50226;BME280;36113;50.742;6.432;2023-05-10T07:44:05;112741.81;;;-145.50;100.00
50226;BME280;36113;50.742;6.432;2023-05-10T07:46:31;112741.81;;;-145.50;100.00
50226;BME280;36113;50.742;6.432;2023-05-10T07:48:56;112741.81;;;-145.50;100.00
50226;BME280;36113;50.742;6.432;2023-05-10T07:51:22;112741.81;;;-145.50;100.00
50226;BME280;36113;50.742;6.432;2023-05-10T07:53:47;112741.81;;;-145.50;100.00
50226;BME280;36113;50.742;6.432;2023-05-10T07:58:48;112741.81;;;-145.50;100.00
50226;BME280;36113;50.742;6.432;2023-05-10T08:01:13;112741.81;;;-145.50;100.00
50226;BME280;36113;50.742;6.432;2023-05-10T08:03:39;112741.81;;;-145.50;100.00
50226;BME280;36113;50.742;6.432;2023-05-10T08:06:04;112741.81;;;-145.50;100.00
50226;BME280;36113;50.742;6.432;2023-05-10T08:08:30;112741.81;;;-145.50;100.00
50226;BME280;36113;50.742;6.432;2023-05-10T08:10:55;112741.81;;;-145.50;100.00
50226;BME280;36113;50.742;6.432;2023-05-10T08:13:21;112741.81;;;-145.50;100.00
50226;BME280;36113;50.742;6.432;2023-05-10T08:15:46;112741.81;;;-145.50;100.00
50226;BME280;36113;50.742;6.432;2023-05-10T08:18:12;112741.81;;;-145.50;100.00
50226;BME280;36113;50.742;6.432;2023-05-10T08:20:37;112741.81;;;-145.50;100.00
50226;BME280;36113;50.742;6.432;2023-05-10T08:23:03;112741.81;;;-145.50;100.00
50226;BME280;36113;50.742;6.432;2023-05-10T08:25:28;112741.81;;;-145.50;99.41
50226;BME280;36113;50.742;6.432;2023-05-10T08:27:53;112741.81;;;-145.50;97.59
50226;BME280;36113;50.742;6.432;2023-05-10T08:30:19;112741.81;;;-145.50;97.91
50226;BME280;36113;50.742;6.432;2023-05-10T08:32:44;112741.81;;;-145.50;98.39
50226;BME280;36113;50.742;6.432;2023-05-10T08:35:09;112741.81;;;-145.50;96.94
50226;BME280;36113;50.742;6.432;2023-05-10T08:37:35;112741.81;;;-145.50;97.74
50226;BME280;36113;50.742;6.432;2023-05-10T08:40:00;112741.81;;;-145.50;97.71
50226;BME280;36113;50.742;6.432;2023-05-10T08:42:28;112741.81;;;-145.50;98.45
50226;BME280;36113;50.742;6.432;2023-05-10T08:44:57;112741.81;;;-145.50;98.60
50226;BME280;36113;50.742;6.432;2023-05-10T08:47:22;112741.81;;;-145.50;99.14
50226;BME280;36113;50.742;6.432;2023-05-10T08:49:48;112741.81;;;-145.50;99.24
50226;BME280;36113;50.742;6.432;2023-05-10T08:52:16;112741.81;;;-145.50;99.85
50226;BME280;36113;50.742;6.432;2023-05-10T08:54:42;112741.81;;;-145.50;99.85
50226;BME280;36113;50.742;6.432;2023-05-10T08:57:08;112741.81;;;-145.50;98.42
50226;BME280;36113;50.742;6.432;2023-05-10T08:59:33;112741.81;;;-145.50;99.00
50226;BME280;36113;50.742;6.432;2023-05-10T09:01:59;112741.81;;;-145.50;98.47
50226;BME280;36113;50.742;6.432;2023-05-10T09:04:25;112741.81;;;-145.50;98.92
50226;BME280;36113;50.742;6.432;2023-05-10T09:06:51;112741.81;;;-145.50;98.96
50226;BME280;36113;50.742;6.432;2023-05-10T09:09:18;112741.81;;;-145.50;96.08
50226;BME280;36113;50.742;6.432;2023-05-10T09:11:44;112741.81;;;-145.50;96.29
50226;BME280;36113;50.742;6.432;2023-05-10T09:14:12;112741.81;;;-145.50;96.74
50226;BME280;36113;50.742;6.432;2023-05-10T09:16:37;112741.81;;;-145.50;96.11
50226;BME280;36113;50.742;6.432;2023-05-10T09:19:03;112741.81;;;-145.50;95.54
50226;BME280;36113;50.742;6.432;2023-05-10T09:21:28;112741.81;;;-145.50;94.76
50226;BME280;36113;50.742;6.432;2023-05-10T09:23:55;112741.81;;;-145.50;94.54
50226;BME280;36113;50.742;6.432;2023-05-10T09:26:23;112741.81;;;-145.50;94.88
50226;BME280;36113;50.742;6.432;2023-05-10T09:28:51;112741.81;;;-145.50;94.29
50226;BME280;36113;50.742;6.432;2023-05-10T09:31:17;112741.81;;;-145.50;93.87
50226;BME280;36113;50.742;6.432;2023-05-10T09:33:47;112741.81;;;-145.50;93.47
50226;BME280;36113;50.742;6.432;2023-05-10T09:36:13;112741.81;;;-145.50;93.00
50226;BME280;36113;50.742;6.432;2023-05-10T09:38:49;112741.81;;;-145.50;93.54
50226;BME280;36113;50.742;6.432;2023-05-10T09:41:32;112741.81;;;-145.50;93.07
50226;BME280;36113;50.742;6.432;2023-05-10T09:43:58;112741.81;;;-145.50;94.33
50226;BME280;36113;50.742;6.432;2023-05-10T09:46:23;112741.81;;;-145.50;94.12
50226;BME280;36113;50.742;6.432;2023-05-10T09:48:49;112741.81;;;-145.50;93.97
50226;BME280;36113;50.742;6.432;2023-05-10T09:51:24;112741.81;;;-145.50;92.99
50226;BME280;36113;50.742;6.432;2023-05-10T09:54:17;112741.81;;;-145.50;91.52
50226;BME280;36113;50.742;6.432;2023-05-10T09:56:42;112741.81;;;-145.50;89.98
50226;BME280;36113;50.742;6.432;2023-05-10T09:59:10;112741.81;;;-145.50;91.20
50226;BME280;36113;50.742;6.432;2023-05-10T10:01:37;112741.81;;;-145.50;89.66
50226;BME280;36113;50.742;6.432;2023-05-10T10:04:04;112741.81;;;-145.50;88.58
50226;BME280;36113;50.742;6.432;2023-05-10T10:06:35;112741.81;;;-145.50;88.64
50226;BME280;36113;50.742;6.432;2023-05-10T10:09:00;112741.81;;;-145.50;87.05
50226;BME280;36113;50.742;6.432;2023-05-10T10:11:26;112741.81;;;-145.50;86.50
50226;BME280;36113;50.742;6.432;2023-05-10T10:13:52;112741.81;;;-145.50;86.49
50226;BME280;36113;50.742;6.432;2023-05-10T10:16:18;112741.81;;;-145.50;86.58
50226;BME280;36113;50.742;6.432;2023-05-10T10:18:44;112741.81;;;-145.50;86.52
50226;BME280;36113;50.742;6.432;2023-05-10T10:21:09;112741.81;;;-145.50;86.05
50226;BME280;36113;50.742;6.432;2023-05-10T10:23:35;112741.81;;;-145.50;86.96
50226;BME280;36113;50.742;6.432;2023-05-10T10:26:03;112741.81;;;-145.50;87.27
50226;BME280;36113;50.742;6.432;2023-05-10T10:30:55;112741.81;;;-145.50;87.15
50226;BME280;36113;50.742;6.432;2023-05-10T10:33:46;112741.81;;;-145.50;85.58
50226;BME280;36113;50.742;6.432;2023-05-10T10:36:16;112741.81;;;-145.50;85.57
50226;BME280;36113;50.742;6.432;2023-05-10T10:41:55;112741.81;;;-145.50;83.88
50226;BME280;36113;50.742;6.432;2023-05-10T10:47:07;112741.81;;;-145.50;83.65
50226;BME280;36113;50.742;6.432;2023-05-10T10:52:31;112741.81;;;-145.50;83.49
50226;BME280;36113;50.742;6.432;2023-05-10T10:55:02;112741.81;;;-145.50;84.21
50226;BME280;36113;50.742;6.432;2023-05-10T10:57:31;112741.81;;;-145.50;82.21
50226;BME280;36113;50.742;6.432;2023-05-10T11:03:03;112741.81;;;-145.50;82.61
50226;BME280;36113;50.742;6.432;2023-05-10T11:08:15;112741.81;;;-145.50;82.39
50226;BME280;36113;50.742;6.432;2023-05-10T11:11:13;112741.81;;;-145.50;79.68
50226;BME280;36113;50.742;6.432;2023-05-10T11:13:45;112741.81;;;-145.50;80.51
50226;BME280;36113;50.742;6.432;2023-05-10T11:19:14;112741.81;;;-145.50;76.72
50226;BME280;36113;50.742;6.432;2023-05-10T11:21:50;112741.81;;;-145.50;76.34
50226;BME280;36113;50.742;6.432;2023-05-10T11:24:19;112741.81;;;-145.50;76.86
50226;BME280;36113;50.742;6.432;2023-05-10T11:26:45;112741.81;;;-145.50;75.28
50226;BME280;36113;50.742;6.432;2023-05-10T11:29:12;112741.81;;;-145.50;76.76
50226;BME280;36113;50.742;6.432;2023-05-10T11:31:42;112741.81;;;-145.50;77.84
50226;BME280;36113;50.742;6.432;2023-05-10T11:34:09;112741.81;;;-145.50;74.22
50226;BME280;36113;50.742;6.432;2023-05-10T11:36:35;112741.81;;;-145.50;71.73
50226;BME280;36113;50.742;6.432;2023-05-10T11:39:02;112741.81;;;-145.50;71.79
50226;BME280;36113;50.742;6.432;2023-05-10T11:41:30;112741.81;;;-145.50;72.56
50226;BME280;36113;50.742;6.432;2023-05-10T11:43:56;112741.81;;;-145.50;71.90
50226;BME280;36113;50.742;6.432;2023-05-10T11:46:27;112741.81;;;-145.50;71.77
50226;BME280;36113;50.742;6.432;2023-05-10T11:48:57;112741.81;;;-145.50;74.32
50226;BME280;36113;50.742;6.432;2023-05-10T11:51:24;112741.81;;;-145.50;75.19
50226;BME280;36113;50.742;6.432;2023-05-10T11:53:50;112741.81;;;-145.50;75.68
50226;BME280;36113;50.742;6.432;2023-05-10T11:56:16;112741.81;;;-145.50;77.25
50226;BME280;36113;50.742;6.432;2023-05-10T11:58:41;112741.81;;;-145.50;75.99
50226;BME280;36113;50.742;6.432;2023-05-10T12:01:07;112741.81;;;-145.50;74.10
50226;BME280;36113;50.742;6.432;2023-05-10T12:03:34;112741.81;;;-145.50;73.73
50226;BME280;36113;50.742;6.432;2023-05-10T12:06:00;112741.81;;;-145.50;72.64
50226;BME280;36113;50.742;6.432;2023-05-10T12:08:27;112741.81;;;-145.50;73.32
50226;BME280;36113;50.742;6.432;2023-05-10T12:10:54;112741.81;;;-145.50;71.80
50226;BME280;36113;50.742;6.432;2023-05-10T12:13:28;112741.81;;;-145.50;68.13
50226;BME280;36113;50.742;6.432;2023-05-10T12:15:57;112741.81;;;-145.50;64.72
50226;BME280;36113;50.742;6.432;2023-05-10T12:18:23;112741.81;;;-145.50;65.95
50226;BME280;36113;50.742;6.432;2023-05-10T12:20:52;112741.81;;;-145.50;64.71
50226;BME280;36113;50.742;6.432;2023-05-10T12:23:21;112741.81;;;-145.50;65.00
50226;BME280;36113;50.742;6.432;2023-05-10T12:25:46;112741.81;;;-145.50;64.64
50226;BME280;36113;50.742;6.432;2023-05-10T12:28:11;112741.81;;;-145.50;66.35
50226;BME280;36113;50.742;6.432;2023-05-10T12:30:37;112741.81;;;-145.50;63.52
50226;BME280;36113;50.742;6.432;2023-05-10T12:33:13;112741.81;;;-145.50;62.10
50226;BME280;36113;50.742;6.432;2023-05-10T12:35:52;112741.81;;;-145.50;60.75
50226;BME280;36113;50.742;6.432;2023-05-10T12:38:28;112741.81;;;-145.50;63.75
50226;BME280;36113;50.742;6.432;2023-05-10T12:40:58;112741.81;;;-145.50;64.71
50226;BME280;36113;50.742;6.432;2023-05-10T12:43:24;112741.81;;;-145.50;66.63
50226;BME280;36113;50.742;6.432;2023-05-10T12:45:49;112741.81;;;-145.50;68.64
50226;BME280;36113;50.742;6.432;2023-05-10T12:48:15;112741.81;;;-145.50;68.44
50226;BME280;36113;50.742;6.432;2023-05-10T12:50:40;112741.81;;;-145.50;69.15
50226;BME280;36113;50.742;6.432;2023-05-10T12:53:06;112741.81;;;-145.50;69.29
50226;BME280;36113;50.742;6.432;2023-05-10T12:55:31;112741.81;;;-145.50;69.74
50226;BME280;36113;50.742;6.432;2023-05-10T12:57:56;112741.81;;;-145.50;71.02
50226;BME280;36113;50.742;6.432;2023-05-10T13:00:22;112741.81;;;-145.50;70.67